createdAt,value
2023-01-27T00:01:10.901Z,28.58
2023-01-27T00:06:14.204Z,26.95
2023-01-27T00:16:20.350Z,29.63
2023-01-27T00:21:23.707Z,26.63
2023-01-27T00:31:29.972Z,27.05
2023-01-27T00:36:33.172Z,26.70
2023-01-27T00:41:37.168Z,27.20
2023-01-27T00:46:42.254Z,23.25
2023-01-27T00:51:46.473Z,27.45
2023-01-27T00:56:49.668Z,24.55
2023-01-27T01:01:52.919Z,31.20
2023-01-27T01:11:59.318Z,23.88
2023-01-27T01:22:05.451Z,30.50
2023-01-27T01:32:11.738Z,28.17
2023-01-27T01:37:15.053Z,28.30
2023-01-27T01:47:21.309Z,27.92
2023-01-27T01:52:26.072Z,22.90
2023-01-27T01:57:35.639Z,27.92
2023-01-27T02:02:40.846Z,26.13
2023-01-27T02:07:55.952Z,25.42
2023-01-27T02:13:00.248Z,24.17
2023-01-27T02:18:06.447Z,27.83
2023-01-27T02:23:26.242Z,26.77
2023-01-27T02:28:31.377Z,27.02
2023-01-27T02:43:44.376Z,26.35
2023-01-27T02:48:49.107Z,27.05
2023-01-27T02:53:52.565Z,28.17
2023-01-27T02:58:56.602Z,30.88
2023-01-27T03:04:12.762Z,29.20
2023-01-27T03:09:16.085Z,26.83
2023-01-27T03:19:24.150Z,28.88
2023-01-27T03:24:27.710Z,29.63
2023-01-27T03:29:34.488Z,27.70
2023-01-27T03:34:38.303Z,24.15
2023-01-27T03:39:48.090Z,26.00
2023-01-27T03:44:51.434Z,25.48
2023-01-27T03:54:57.767Z,28.48
2023-01-27T04:05:03.872Z,24.73
2023-01-27T04:10:08.660Z,25.67
2023-01-27T04:15:12.175Z,26.00
2023-01-27T04:20:15.594Z,29.40
2023-01-27T04:25:19.172Z,28.58
2023-01-27T04:30:26.921Z,29.67
2023-01-27T04:35:38.445Z,29.02
2023-01-27T04:40:42.303Z,28.30
2023-01-27T04:45:45.600Z,24.00
2023-01-27T04:50:48.936Z,32.80
2023-01-27T05:00:55.141Z,25.40
2023-01-27T05:05:58.328Z,25.67
2023-01-27T05:16:14.897Z,31.52
2023-01-27T05:21:21.450Z,31.88
2023-01-27T05:26:27.178Z,29.50
2023-01-27T05:32:34.158Z,24.75
2023-01-27T05:37:40.569Z,22.88
2023-01-27T05:47:52.754Z,27.02
2023-01-27T05:52:56.045Z,30.10
2023-01-27T05:58:00.657Z,30.60
2023-01-27T06:13:10.190Z,40.72
2023-01-27T06:18:14.470Z,28.15
2023-01-27T06:23:18.560Z,28.58
2023-01-27T06:28:29.251Z,31.05
2023-01-27T06:33:33.375Z,27.90
2023-01-27T06:38:36.921Z,25.83
2023-01-27T06:43:40.367Z,30.15
2023-01-27T06:48:43.695Z,32.33
2023-01-27T06:53:48.622Z,36.95
2023-01-27T06:58:51.823Z,35.75
2023-01-27T07:03:55.859Z,29.35
2023-01-27T07:08:59.939Z,30.98
2023-01-27T07:14:04.867Z,36.40
2023-01-27T07:19:08.117Z,27.15
2023-01-27T07:24:11.711Z,29.88
2023-01-27T07:34:17.918Z,39.15
2023-01-27T07:44:25.611Z,29.50
2023-01-27T07:49:30.068Z,30.73
2023-01-27T07:54:33.306Z,36.20
2023-01-27T07:59:37.483Z,37.50
2023-01-27T08:04:52.562Z,33.45
2023-01-27T08:09:56.392Z,31.02
2023-01-27T08:14:59.802Z,34.78
2023-01-27T08:20:03.763Z,32.40
2023-01-27T08:25:07.688Z,32.45
2023-01-27T08:30:12.800Z,29.33
2023-01-27T08:35:16.596Z,30.77
2023-01-27T08:40:19.916Z,36.60
2023-01-27T08:50:26.827Z,36.17
2023-01-27T08:55:33.398Z,31.13
2023-01-27T09:00:36.714Z,38.83
2023-01-27T09:10:43.302Z,36.97
2023-01-27T09:15:46.503Z,31.25
2023-01-27T09:25:52.814Z,39.22
2023-01-27T09:30:59.882Z,32.22
2023-01-27T09:36:14.531Z,31.17
2023-01-27T09:41:30.126Z,30.13
2023-01-27T09:46:39.333Z,29.30
2023-01-27T09:52:03.553Z,26.15
2023-01-27T09:57:28.399Z,32.05
2023-01-27T10:02:48.440Z,37.45
2023-01-27T10:08:13.884Z,28.77
2023-01-27T10:13:20.760Z,28.73
2023-01-27T10:18:43.991Z,31.83
2023-01-27T10:24:17.325Z,30.05
2023-01-27T10:29:40.224Z,31.70
2023-01-27T10:35:24.215Z,28.58
2023-01-27T10:40:39.634Z,23.48
2023-01-27T10:45:53.896Z,35.63
2023-01-27T10:50:59.795Z,28.90
2023-01-27T10:56:15.710Z,25.15
2023-01-27T11:01:24.984Z,25.02
2023-01-27T11:06:35.189Z,38.22
2023-01-27T11:11:39.669Z,25.33
2023-01-27T11:16:49.102Z,35.08
2023-01-27T11:22:06.664Z,29.65
2023-01-27T11:27:37.226Z,22.77
2023-01-27T11:33:16.843Z,25.77
2023-01-27T11:38:22.693Z,32.78
2023-01-27T11:43:28.249Z,25.52
2023-01-27T11:48:42.606Z,27.40
2023-01-27T11:53:52.399Z,26.52
2023-01-27T11:59:07.289Z,24.77
2023-01-27T12:04:43.660Z,24.02
2023-01-27T12:09:47.522Z,25.90
2023-01-27T12:14:52.170Z,28.00
2023-01-27T12:19:59.130Z,31.40
2023-01-27T12:25:14.665Z,39.15
2023-01-27T12:30:27.801Z,31.63
2023-01-27T12:35:35.663Z,31.83
2023-01-27T12:40:44.118Z,34.40
2023-01-27T12:46:13.551Z,30.20
2023-01-27T12:51:21.422Z,43.33
2023-01-27T12:56:24.903Z,40.60
2023-01-27T13:01:31.826Z,36.90
2023-01-27T13:06:43.904Z,36.05
2023-01-27T13:11:47.215Z,38.73
2023-01-27T13:16:53.646Z,34.13
2023-01-27T13:21:58.022Z,60.22
2023-01-27T13:27:04.181Z,44.97
2023-01-27T13:32:18.541Z,58.08
2023-01-27T13:37:43.196Z,58.70
2023-01-27T13:42:55.044Z,73.93
2023-01-27T13:48:04.223Z,79.23
2023-01-27T13:53:13.599Z,88.18
2023-01-27T13:58:36.061Z,104.13
2023-01-27T14:03:47.731Z,102.55
2023-01-27T14:09:05.167Z,83.30
2023-01-27T14:14:33.338Z,94.47
2023-01-27T14:19:45.549Z,109.20
2023-01-27T14:24:59.666Z,114.25
2023-01-27T14:30:14.583Z,98.93
2023-01-27T14:35:37.408Z,104.50
2023-01-27T14:40:57.932Z,107.95
2023-01-27T14:46:44.674Z,100.65
2023-01-27T14:51:54.281Z,90.20
2023-01-27T14:57:26.870Z,72.95
2023-01-27T15:02:48.646Z,77.32
2023-01-27T15:08:02.851Z,84.97
2023-01-27T15:13:08.859Z,71.95
2023-01-27T15:18:26.337Z,73.93
2023-01-27T15:23:56.819Z,66.90
2023-01-27T15:29:00.918Z,65.60
2023-01-27T15:34:04.213Z,81.70
2023-01-27T15:39:10.595Z,77.07
2023-01-27T15:44:19.577Z,58.10
2023-01-27T15:49:29.397Z,71.47
2023-01-27T15:54:34.096Z,59.70
2023-01-27T15:59:58.418Z,52.38
2023-01-27T16:05:16.697Z,56.08
2023-01-27T16:10:24.754Z,43.92
2023-01-27T16:15:30.919Z,45.60
2023-01-27T16:20:37.703Z,44.28
2023-01-27T16:25:48.137Z,39.83
2023-01-27T16:31:11.286Z,43.90
2023-01-27T16:36:24.267Z,37.85
2023-01-27T16:46:46.689Z,40.22
2023-01-27T16:52:04.402Z,43.33
2023-01-27T16:57:28.682Z,41.92
2023-01-27T17:02:32.327Z,45.58
2023-01-27T17:07:35.727Z,35.63
2023-01-27T17:12:50.465Z,40.10
2023-01-27T17:17:53.929Z,39.88
2023-01-27T17:22:57.203Z,34.00
2023-01-27T17:28:02.059Z,37.78
2023-01-27T17:33:07.496Z,37.38
2023-01-27T17:38:19.278Z,34.03
2023-01-27T17:43:22.465Z,37.90
2023-01-27T17:53:28.716Z,43.38
2023-01-27T17:58:32.085Z,35.40
2023-01-27T18:03:37.000Z,36.63
2023-01-27T18:08:48.587Z,38.25
2023-01-27T18:19:19.222Z,31.23
2023-01-27T18:24:23.866Z,37.92
2023-01-27T18:29:38.439Z,36.47
2023-01-27T18:34:50.784Z,32.97
2023-01-27T18:39:55.901Z,39.33
2023-01-27T18:44:59.182Z,35.35
2023-01-27T18:50:15.200Z,35.75
2023-01-27T18:55:22.950Z,37.40
2023-01-27T19:00:32.692Z,45.45
2023-01-27T19:05:36.523Z,33.75
2023-01-27T19:10:39.947Z,35.92
2023-01-27T19:15:51.730Z,38.60
2023-01-27T19:20:55.313Z,32.35
2023-01-27T19:26:02.361Z,31.70
2023-01-27T19:31:07.507Z,41.13
2023-01-27T19:36:31.092Z,30.17
2023-01-27T19:41:34.935Z,42.50
2023-01-27T19:46:41.580Z,31.15
2023-01-27T19:51:45.032Z,38.92
2023-01-27T19:56:48.736Z,40.60
2023-01-27T20:01:53.557Z,31.52
2023-01-27T20:06:57.294Z,33.53
2023-01-27T20:17:03.246Z,39.47
2023-01-27T20:27:10.779Z,28.75
2023-01-27T20:32:14.023Z,30.23
2023-01-27T20:42:21.871Z,37.75
2023-01-27T20:47:25.112Z,31.95
2023-01-27T20:52:29.148Z,30.05
2023-01-27T20:57:34.604Z,49.08
2023-01-27T21:02:38.761Z,26.88
2023-01-27T21:22:53.051Z,31.70
2023-01-27T21:27:56.862Z,29.15
2023-01-27T21:33:00.096Z,33.65
2023-01-27T21:43:09.495Z,32.10
2023-01-27T21:48:12.713Z,33.78
2023-01-27T22:03:22.191Z,32.15
2023-01-27T22:08:25.546Z,27.25
2023-01-27T22:13:28.966Z,27.02
2023-01-27T22:18:32.373Z,33.05
2023-01-27T22:23:36.176Z,26.73
2023-01-27T22:28:39.428Z,25.58
2023-01-27T22:48:54.542Z,35.05
2023-01-27T22:59:01.273Z,31.25
2023-01-27T23:04:04.533Z,26.98
2023-01-27T23:09:11.745Z,25.55
2023-01-27T23:14:14.852Z,29.58
2023-01-27T23:19:18.765Z,27.42
2023-01-27T23:24:22.226Z,29.13
2023-01-27T23:29:26.823Z,23.13
2023-01-27T23:34:31.608Z,23.45
2023-01-27T23:39:35.042Z,24.40
2023-01-27T23:44:38.416Z,25.42
2023-01-27T23:49:41.965Z,26.73
2023-01-27T23:54:45.297Z,32.50
